« Back
NWS Peachtree City, Ga » Text Product » AHN Terminal Aerodrome Forecast


Printer-friendly Version
Current Version              Previous Versions:   1  2  3  4  5  6  7  8  9  

Terminal Aerodrome Forecast

977
FTAK31 PAJN 221100
TAFAHN
TAF
PAHN 221123Z 2212/2312 10012G22KT P6SM -SHRA SCT015 OVC050
     FM221600 09011G14KT P6SM -SHRA BKN035
     FM221900 11010G18KT P6SM VCSH SCT025 BKN035 OVC050
     FM222200 11010KT P6SM VCSH BKN040 OVC050
     FM230300 09005KT P6SM VCSH BKN045 OVC050
      AMD LTD TO CLD VIS AND WIND=

USA.gov is the U.S. government's official web portal to all federal, state and local government web resources and services.